Terminal Aerodrome Forecast
Issued by NWS

Home | Current Version | Previous Version | Text Only | Print | Product List | Glossary On
Versions: 1 2 3 4 5 6 7 8 9 10 11 12 13 14 15 16 17 18 19 20 21 22
000
FTUS46 KEKA 230500 RRA
TAFCEC
TAF
KCEC 230541Z 2306/2406 15012KT P6SM -DZ SCT025 BKN035 OVC050
     FM231000 15010KT 6SM -DZ BR SCT015 BKN025 OVC060
     FM231800 17012KT 6SM -RA BKN015 OVC025
     FM240000 17008KT 4SM RA BR SCT005 OVC020=

USA.gov is the U.S. government's official web portal to all federal, state and local government web resources and services.